Time;durP1;ratioP1;P1;durP2;ratioP2;P2;SDS_P1;SDS_P2;PMS_P1;PMS_P2;Temp;Humidity;BMP_temperature;BMP_pressure;BME280_temperature;BME280_humidity;BME280_pressure;Samples;Min_cycle;Max_cycle;Signal;HPM_P1;HPM_P2
2021/04/30 00:01:12;;;;;;;32.42;24.70;;;7.80;95.10;;;;;;5031316;28;20099;-93
2021/04/30 00:03:38;;;;;;;37.20;24.33;;;7.80;95.20;;;;;;5027194;28;20556;-93
2021/04/30 00:06:04;;;;;;;31.55;23.48;;;7.70;95.20;;;;;;5028809;28;20136;-93
2021/04/30 00:08:29;;;;;;;32.30;25.50;;;7.70;95.20;;;;;;5025817;28;20049;-93
2021/04/30 00:10:56;;;;;;;34.47;25.38;;;7.70;95.30;;;;;;5027246;28;20049;-93
2021/04/30 00:13:22;;;;;;;30.90;25.40;;;7.70;95.30;;;;;;5029523;28;20525;-93
2021/04/30 00:15:48;;;;;;;29.48;23.38;;;7.70;95.30;;;;;;5029043;28;20045;-92
2021/04/30 00:18:14;;;;;;;30.98;24.75;;;7.70;95.30;;;;;;5043543;28;20049;-92
2021/04/30 00:20:46;;;;;;;31.45;23.95;;;7.70;95.30;;;;;;5063062;28;20136;-92
2021/04/30 00:23:12;;;;;;;31.45;23.92;;;7.70;95.30;;;;;;5026695;28;20055;-91
2021/04/30 00:25:42;;;;;;;31.30;25.13;;;7.70;95.30;;;;;;5015789;28;20073;-92
2021/04/30 00:28:08;;;;;;;29.00;22.65;;;7.70;95.20;;;;;;5028735;28;20126;-92
2021/04/30 00:30:35;;;;;;;29.85;22.67;;;7.80;95.20;;;;;;5046391;28;20057;-93
2021/04/30 00:33:01;;;;;;;28.40;22.83;;;7.70;95.00;;;;;;5046863;28;20056;-92
2021/04/30 00:35:27;;;;;;;28.13;21.15;;;7.80;94.90;;;;;;5063533;28;20131;-93
2021/04/30 00:37:53;;;;;;;29.27;21.77;;;7.80;94.80;;;;;;5034820;28;20064;-92
2021/04/30 00:40:22;;;;;;;28.88;21.30;;;7.80;94.70;;;;;;5046754;28;20049;-93
2021/04/30 00:42:53;;;;;;;31.25;23.08;;;7.90;94.70;;;;;;5038938;28;20079;-91
2021/04/30 00:45:22;;;;;;;28.17;20.75;;;7.80;94.60;;;;;;5044876;28;20049;-92
2021/04/30 00:47:49;;;;;;;26.67;20.55;;;7.90;94.70;;;;;;5048223;28;20055;-92
2021/04/30 00:50:15;;;;;;;29.58;22.15;;;7.90;94.60;;;;;;5040094;28;20056;-92
2021/04/30 00:52:41;;;;;;;29.10;21.80;;;7.90;94.50;;;;;;5064060;28;20381;-92
2021/04/30 00:55:13;;;;;;;27.77;19.33;;;7.90;94.60;;;;;;5025392;28;20049;-93
2021/04/30 00:57:41;;;;;;;27.27;19.60;;;8.00;94.50;;;;;;5046897;28;20041;-92
2021/04/30 01:00:10;;;;;;;26.42;21.08;;;8.00;94.50;;;;;;5057968;28;20044;-92
2021/04/30 01:02:36;;;;;;;28.13;19.85;;;8.00;94.50;;;;;;5011789;28;20049;-92
2021/04/30 01:05:04;;;;;;;28.17;19.75;;;8.00;94.50;;;;;;5045065;28;20144;-92
2021/04/30 01:07:30;;;;;;;29.92;22.40;;;8.00;94.60;;;;;;5041621;28;20412;-92
2021/04/30 01:09:56;;;;;;;30.02;21.55;;;7.90;94.70;;;;;;5000958;28;20048;-92
2021/04/30 01:12:22;;;;;;;27.63;21.30;;;7.90;94.80;;;;;;5010363;28;20041;-92
2021/04/30 01:14:49;;;;;;;26.70;20.15;;;8.00;94.80;;;;;;5056570;28;20065;-92
2021/04/30 01:17:15;;;;;;;29.67;20.58;;;7.90;95.00;;;;;;5042621;28;20064;-92
2021/04/30 01:19:41;;;;;;;26.25;21.67;;;8.00;94.80;;;;;;5027273;28;20059;-92
2021/04/30 01:22:08;;;;;;;29.05;21.55;;;8.00;94.80;;;;;;5041846;28;20080;-93
2021/04/30 01:24:34;;;;;;;27.55;20.83;;;7.90;94.80;;;;;;5033209;28;20406;-92
2021/04/30 01:27:04;;;;;;;33.80;20.83;;;8.00;94.90;;;;;;5027954;28;20049;-93
2021/04/30 01:29:30;;;;;;;28.63;21.23;;;8.00;94.90;;;;;;5028362;28;20053;-92
2021/04/30 01:31:56;;;;;;;26.05;20.45;;;8.00;94.90;;;;;;5040961;28;20049;-92
2021/04/30 01:34:22;;;;;;;31.65;22.38;;;8.00;95.00;;;;;;5027386;28;20098;-93
2021/04/30 01:36:49;;;;;;;27.60;21.50;;;8.00;95.00;;;;;;5040777;28;20124;-93
2021/04/30 01:39:16;;;;;;;34.70;22.15;;;8.00;95.00;;;;;;5021066;28;20094;-93
2021/04/30 01:41:43;;;;;;;30.13;21.88;;;8.00;95.40;;;;;;5010490;28;20466;-91
2021/04/30 01:44:13;;;;;;;24.85;19.83;;;8.00;95.20;;;;;;5025477;28;20053;-93
2021/04/30 01:46:40;;;;;;;28.15;20.35;;;8.00;95.20;;;;;;5010453;28;20053;-92
2021/04/30 01:49:09;;;;;;;29.27;20.73;;;8.00;95.30;;;;;;5026347;28;20061;-92
2021/04/30 01:51:35;;;;;;;30.00;21.27;;;8.00;95.30;;;;;;5019252;28;20045;-93
2021/04/30 01:54:03;;;;;;;30.80;21.10;;;7.90;95.30;;;;;;5027170;28;20132;-92
2021/04/30 01:56:30;;;;;;;27.60;19.75;;;8.00;95.40;;;;;;5014028;28;20056;-92
2021/04/30 01:58:56;;;;;;;28.75;19.33;;;8.00;95.40;;;;;;5025992;28;20050;-92
2021/04/30 02:01:22;;;;;;;24.75;18.35;;;8.00;95.40;;;;;;5002912;28;20048;-93
2021/04/30 02:03:48;;;;;;;26.55;19.85;;;8.00;95.40;;;;;;5007984;28;20041;-92
2021/04/30 02:06:14;;;;;;;27.67;18.88;;;8.00;95.40;;;;;;5010286;28;20053;-93
2021/04/30 02:08:40;;;;;;;28.70;19.00;;;8.00;95.40;;;;;;5025465;28;20124;-93
2021/04/30 02:11:06;;;;;;;30.33;17.83;;;8.00;95.40;;;;;;5025085;28;20061;-91
2021/04/30 02:13:33;;;;;;;30.75;19.38;;;8.00;95.50;;;;;;5026211;28;20096;-93
2021/04/30 02:15:59;;;;;;;31.05;20.05;;;8.00;95.50;;;;;;5041401;28;20049;-92
2021/04/30 02:18:25;;;;;;;27.55;18.02;;;8.00;95.60;;;;;;5028242;28;20045;-93
2021/04/30 02:20:52;;;;;;;28.88;18.27;;;8.00;95.70;;;;;;5035695;28;20072;-92
2021/04/30 02:23:19;;;;;;;29.05;18.55;;;8.10;95.70;;;;;;5010622;28;20060;-91
2021/04/30 02:25:46;;;;;;;29.83;18.08;;;8.10;95.70;;;;;;5038040;28;20049;-92
2021/04/30 02:28:12;;;;;;;31.33;17.92;;;8.00;95.70;;;;;;5031394;28;20049;-92
2021/04/30 02:30:41;;;;;;;27.42;17.50;;;8.00;95.70;;;;;;5002598;28;20530;-92
2021/04/30 02:33:09;;;;;;;32.03;17.98;;;8.00;95.80;;;;;;5024597;28;20413;-92
2021/04/30 02:35:37;;;;;;;33.97;17.75;;;8.00;95.80;;;;;;5009712;28;20056;-93
2021/04/30 02:38:05;;;;;;;32.90;17.40;;;7.90;96.20;;;;;;5027382;28;20496;-93
2021/04/30 02:40:33;;;;;;;27.65;16.13;;;7.90;96.00;;;;;;5023667;28;20465;-93
2021/04/30 02:43:13;;;;;;;31.65;15.65;;;7.90;96.00;;;;;;5008896;28;20041;-93
2021/04/30 02:45:40;;;;;;;31.65;17.15;;;7.90;96.10;;;;;;5042326;28;20054;-92
2021/04/30 02:48:22;;;;;;;29.77;16.50;;;7.90;96.10;;;;;;5025515;28;20060;-93
2021/04/30 02:50:48;;;;;;;30.88;17.75;;;7.90;96.10;;;;;;5008004;28;20081;-91
2021/04/30 02:53:14;;;;;;;33.10;17.08;;;7.80;96.20;;;;;;5039979;28;20090;-93
2021/04/30 02:55:40;;;;;;;31.80;16.15;;;7.80;96.20;;;;;;5023565;28;20053;-92
2021/04/30 02:58:10;;;;;;;31.55;16.77;;;7.90;96.20;;;;;;5030256;28;20046;-92
2021/04/30 03:00:36;;;;;;;31.98;16.73;;;7.90;96.20;;;;;;4991057;28;20135;-91
2021/04/30 03:03:04;;;;;;;31.75;17.75;;;7.90;96.30;;;;;;5006632;28;20049;-92
2021/04/30 03:05:30;;;;;;;32.03;16.30;;;7.90;96.30;;;;;;4990237;28;20104;-92
2021/04/30 03:07:56;;;;;;;30.88;17.63;;;7.90;96.40;;;;;;5008524;28;20120;-92
2021/04/30 03:10:24;;;;;;;29.83;17.83;;;7.90;96.40;;;;;;4996577;28;21008;-92
2021/04/30 03:12:55;;;;;;;35.38;16.88;;;7.80;96.50;;;;;;4985519;28;20042;-92
2021/04/30 03:15:27;;;;;;;31.30;17.90;;;7.80;96.50;;;;;;4998276;28;20102;-92
2021/04/30 03:17:53;;;;;;;33.13;18.05;;;7.80;96.50;;;;;;4984244;28;20398;-92
2021/04/30 03:20:31;;;;;;;38.88;18.00;;;7.90;96.50;;;;;;4949136;28;20046;-92
2021/04/30 03:22:57;;;;;;;37.92;18.55;;;7.80;96.50;;;;;;4956004;28;20056;-92
2021/04/30 03:25:23;;;;;;;38.17;19.40;;;7.80;96.50;;;;;;5008830;28;20431;-92
2021/04/30 03:27:51;;;;;;;38.20;18.85;;;7.80;96.50;;;;;;5009098;28;20049;-91
2021/04/30 03:30:19;;;;;;;37.50;19.27;;;7.80;96.60;;;;;;4992140;28;20481;-93
2021/04/30 03:32:58;;;;;;;;;;;;;;;;;;;;;
2021/04/30 03:35:26;;;;;;;39.85;18.92;;;7.70;96.60;;;;;;4984926;28;20046;-92
2021/04/30 03:37:52;;;;;;;40.15;20.10;;;7.70;96.60;;;;;;5006681;28;20041;-92
2021/04/30 03:40:19;;;;;;;40.75;18.60;;;7.70;96.60;;;;;;5025558;28;20107;-92
2021/04/30 03:42:45;;;;;;;35.20;18.17;;;7.70;96.60;;;;;;5023697;28;20172;-92
2021/04/30 03:45:12;;;;;;;39.08;19.25;;;7.60;96.50;;;;;;5009576;28;20136;-92
2021/04/30 03:47:38;;;;;;;32.72;17.75;;;7.60;96.50;;;;;;5019976;28;20109;-92
2021/04/30 03:50:04;;;;;;;39.13;19.27;;;7.60;96.50;;;;;;5010029;28;20056;-92
2021/04/30 03:52:31;;;;;;;42.53;20.02;;;7.50;96.50;;;;;;5033283;28;20132;-92
2021/04/30 03:54:57;;;;;;;46.92;20.35;;;7.50;96.50;;;;;;5028331;28;20060;-92
2021/04/30 03:57:23;;;;;;;36.88;18.15;;;7.50;96.60;;;;;;5028593;28;20049;-92
2021/04/30 03:59:49;;;;;;;36.15;18.38;;;7.50;96.70;;;;;;5020080;28;20072;-92
2021/04/30 04:02:14;;;;;;;42.13;19.23;;;7.40;96.70;;;;;;5028971;28;20128;-92
2021/04/30 04:04:40;;;;;;;44.30;20.05;;;7.40;96.70;;;;;;5026953;28;20522;-92
2021/04/30 04:07:06;;;;;;;37.88;19.83;;;7.40;96.70;;;;;;5040923;28;20057;-92
2021/04/30 04:09:32;;;;;;;41.85;19.95;;;7.30;96.70;;;;;;5044220;28;20049;-93
2021/04/30 04:11:58;;;;;;;38.85;19.17;;;7.30;96.80;;;;;;5010459;28;20517;-92
2021/04/30 04:14:24;;;;;;;36.38;19.40;;;7.40;96.80;;;;;;5011843;28;20049;-91
2021/04/30 04:16:50;;;;;;;39.08;20.48;;;7.30;96.90;;;;;;5027861;28;20132;-92
2021/04/30 04:19:17;;;;;;;46.92;20.60;;;7.40;96.90;;;;;;5023170;28;20063;-93
2021/04/30 04:21:44;;;;;;;41.30;21.02;;;7.40;96.90;;;;;;5027541;28;20048;-92
2021/04/30 04:24:10;;;;;;;37.15;18.73;;;7.40;97.00;;;;;;5028136;28;20057;-93
2021/04/30 04:26:38;;;;;;;43.78;19.00;;;7.40;97.00;;;;;;5002397;28;20061;-93
2021/04/30 04:29:07;;;;;;;38.15;19.05;;;7.50;97.00;;;;;;4999122;28;20037;-92
2021/04/30 04:31:35;;;;;;;37.85;19.55;;;7.40;97.00;;;;;;5016643;28;20064;-92
2021/04/30 04:34:01;;;;;;;40.50;19.80;;;7.50;97.10;;;;;;5012453;28;20128;-93
2021/04/30 04:36:27;;;;;;;44.70;20.33;;;7.50;97.10;;;;;;5019392;28;20041;-93
2021/04/30 04:38:52;;;;;;;44.20;18.85;;;7.50;97.10;;;;;;5027488;28;20057;-93
2021/04/30 04:41:18;;;;;;;37.45;18.25;;;7.50;97.10;;;;;;5026349;28;20565;-90
2021/04/30 04:43:44;;;;;;;42.03;19.83;;;7.50;97.10;;;;;;5013170;28;20347;-92
2021/04/30 04:46:10;;;;;;;40.38;18.67;;;7.50;97.10;;;;;;5027192;28;20049;-92
2021/04/30 04:48:36;;;;;;;34.47;18.20;;;7.50;97.10;;;;;;5003621;28;20455;-93
2021/04/30 04:51:02;;;;;;;39.35;18.52;;;7.50;97.20;;;;;;4999360;28;20050;-93
2021/04/30 04:53:29;;;;;;;36.78;17.25;;;7.50;97.10;;;;;;5020156;28;20124;-93
2021/04/30 04:55:55;;;;;;;34.65;17.15;;;7.60;97.20;;;;;;5018570;28;20132;-93
2021/04/30 04:58:21;;;;;;;35.85;18.48;;;7.50;97.10;;;;;;5010007;28;20116;-93
2021/04/30 05:00:47;;;;;;;32.38;16.83;;;7.60;97.10;;;;;;5009826;28;20077;-92
2021/04/30 05:03:15;;;;;;;41.25;20.20;;;7.60;97.10;;;;;;5027145;28;20077;-93
2021/04/30 05:05:41;;;;;;;40.13;18.50;;;7.60;97.10;;;;;;5019257;28;20045;-93
2021/04/30 05:08:09;;;;;;;35.78;18.02;;;7.60;97.10;;;;;;5018520;28;20052;-92
2021/04/30 05:10:37;;;;;;;35.40;17.75;;;7.70;97.10;;;;;;5026667;28;20053;-92
2021/04/30 05:13:03;;;;;;;37.17;17.13;;;7.70;97.10;;;;;;5010662;28;20083;-93
2021/04/30 05:15:29;;;;;;;40.38;16.75;;;7.70;97.20;;;;;;5026465;28;20647;-93
2021/04/30 05:17:55;;;;;;;34.00;14.27;;;7.80;97.10;;;;;;5026996;28;20068;-93
2021/04/30 05:20:21;;;;;;;37.88;15.57;;;7.80;97.10;;;;;;5012287;28;20488;-93
2021/04/30 05:22:47;;;;;;;32.53;14.55;;;7.80;97.00;;;;;;5027163;28;20087;-93
2021/04/30 05:25:14;;;;;;;33.42;13.85;;;7.80;97.10;;;;;;5022957;28;20073;-92
2021/04/30 05:27:43;;;;;;;31.70;14.05;;;7.80;97.10;;;;;;4977149;28;20051;-92
2021/04/30 05:30:10;;;;;;;33.90;14.02;;;7.90;97.10;;;;;;5026906;28;20077;-92
2021/04/30 05:32:36;;;;;;;31.30;13.90;;;7.90;97.10;;;;;;5010468;28;20079;-93
2021/04/30 05:35:03;;;;;;;32.53;14.10;;;7.90;97.00;;;;;;5019260;28;20065;-91
2021/04/30 05:37:33;;;;;;;28.15;12.60;;;8.00;97.10;;;;;;5001140;28;20045;-92
2021/04/30 05:39:59;;;;;;;30.33;13.45;;;8.10;97.10;;;;;;5035205;28;20052;-93
2021/04/30 05:42:26;;;;;;;32.65;14.32;;;8.10;97.00;;;;;;5036321;28;20449;-93
2021/04/30 05:44:53;;;;;;;28.92;12.70;;;8.10;97.00;;;;;;5009260;28;20454;-92
2021/04/30 05:47:23;;;;;;;29.20;12.77;;;8.10;97.00;;;;;;5028972;28;20497;-93
2021/04/30 05:49:49;;;;;;;39.10;14.18;;;8.10;97.00;;;;;;5008773;28;20054;-93
2021/04/30 05:52:16;;;;;;;35.10;13.38;;;8.20;97.00;;;;;;5019356;28;20126;-93
2021/04/30 05:54:43;;;;;;;24.35;12.05;;;8.20;96.90;;;;;;5008187;28;20054;-92
2021/04/30 05:57:09;;;;;;;33.85;13.43;;;8.30;96.90;;;;;;4990551;28;20054;-93
2021/04/30 05:59:35;;;;;;;28.42;12.15;;;8.30;96.70;;;;;;5022219;28;20273;-92
2021/04/30 06:02:04;;;;;;;32.70;12.23;;;8.40;96.60;;;;;;5035486;28;20072;-92
2021/04/30 06:04:30;;;;;;;28.35;11.15;;;8.40;96.20;;;;;;5025137;28;20499;-93
2021/04/30 06:06:56;;;;;;;27.90;12.82;;;8.40;96.30;;;;;;5040593;28;20052;-93
2021/04/30 06:09:22;;;;;;;34.17;12.95;;;8.40;96.30;;;;;;5037719;28;20049;-92
2021/04/30 06:11:51;;;;;;;34.63;13.68;;;8.40;96.40;;;;;;4999041;28;20057;-93
2021/04/30 06:14:17;;;;;;;29.70;12.95;;;8.50;96.40;;;;;;5029429;28;20041;-93
2021/04/30 06:16:46;;;;;;;30.05;13.60;;;8.50;96.40;;;;;;5034943;28;20072;-93
2021/04/30 06:19:12;;;;;;;27.95;11.88;;;8.50;96.50;;;;;;5015405;28;20077;-93
2021/04/30 06:21:38;;;;;;;37.08;13.80;;;8.50;96.50;;;;;;5026398;28;20219;-93
2021/04/30 06:24:04;;;;;;;27.80;12.30;;;8.50;96.40;;;;;;5040309;28;20449;-93
2021/04/30 06:26:34;;;;;;;28.55;11.70;;;8.60;96.50;;;;;;4985822;28;20049;-93
2021/04/30 06:28:59;;;;;;;27.58;13.00;;;8.60;96.30;;;;;;4997635;28;20130;-93
2021/04/30 06:31:30;;;;;;;26.08;11.10;;;8.60;96.20;;;;;;5010274;28;20052;-93
2021/04/30 06:33:58;;;;;;;29.58;12.13;;;8.60;96.20;;;;;;5002687;28;20059;-93
2021/04/30 06:36:24;;;;;;;29.63;12.02;;;8.60;96.10;;;;;;5009762;28;20465;-94
2021/04/30 06:38:52;;;;;;;33.67;12.93;;;8.60;96.10;;;;;;5028988;28;20079;-93
2021/04/30 06:41:18;;;;;;;31.55;13.18;;;8.60;96.00;;;;;;4995448;28;20542;-92
2021/04/30 06:43:44;;;;;;;33.10;13.77;;;8.60;96.00;;;;;;5004560;28;20485;-94
2021/04/30 06:46:10;;;;;;;34.72;14.63;;;8.70;96.00;;;;;;5014923;28;20069;-93
2021/04/30 06:48:40;;;;;;;25.15;11.15;;;8.70;96.00;;;;;;5011322;28;20545;-94
2021/04/30 06:51:07;;;;;;;29.05;13.52;;;8.80;96.10;;;;;;5031156;28;20079;-94
2021/04/30 06:53:33;;;;;;;27.33;12.80;;;8.90;95.80;;;;;;5011888;28;20063;-93
2021/04/30 06:56:00;;;;;;;26.38;12.68;;;8.90;95.70;;;;;;5008416;28;23152;-93
2021/04/30 06:58:26;;;;;;;26.60;13.48;;;9.00;95.70;;;;;;5001577;28;20044;-94
2021/04/30 07:00:55;;;;;;;24.15;13.50;;;9.10;95.70;;;;;;5048287;28;20045;-93
2021/04/30 07:03:21;;;;;;;28.42;13.18;;;9.20;95.80;;;;;;5030786;28;20517;-92
2021/04/30 07:05:49;;;;;;;23.33;11.35;;;9.30;95.80;;;;;;5018133;28;20406;-93
2021/04/30 07:08:15;;;;;;;25.92;12.38;;;9.40;95.60;;;;;;5039172;28;20049;-93
2021/04/30 07:10:47;;;;;;;26.88;13.25;;;9.50;95.30;;;;;;5020253;28;20043;-93
2021/04/30 07:13:14;;;;;;;21.65;11.18;;;9.60;94.90;;;;;;5021693;28;20112;-93
2021/04/30 07:15:41;;;;;;;24.17;12.70;;;9.60;94.50;;;;;;5016330;28;20377;-93
2021/04/30 07:18:07;;;;;;;23.27;11.55;;;9.60;94.20;;;;;;5022141;28;20072;-93
2021/04/30 07:20:35;;;;;;;24.05;13.25;;;9.70;94.20;;;;;;5027034;28;20044;-93
2021/04/30 07:23:03;;;;;;;21.27;13.82;;;9.70;93.70;;;;;;5009854;28;20402;-93
2021/04/30 07:25:30;;;;;;;28.67;14.40;;;9.80;93.60;;;;;;4999197;28;20091;-93
2021/04/30 07:27:56;;;;;;;26.85;13.38;;;9.80;93.70;;;;;;4963155;28;20043;-93
2021/04/30 07:30:25;;;;;;;24.50;13.02;;;9.80;93.50;;;;;;4996326;28;20056;-93
2021/04/30 07:32:54;;;;;;;21.45;12.77;;;9.90;93.40;;;;;;5002746;28;20050;-93
2021/04/30 07:35:20;;;;;;;24.08;13.80;;;9.90;93.20;;;;;;5041447;28;20120;-93
2021/04/30 07:37:46;;;;;;;20.88;12.50;;;10.00;93.30;;;;;;5000270;28;20465;-93
2021/04/30 07:40:12;;;;;;;22.38;12.48;;;10.00;93.10;;;;;;5011406;28;20484;-92
2021/04/30 07:42:38;;;;;;;27.55;13.55;;;10.10;92.80;;;;;;5005306;28;20053;-92
2021/04/30 07:45:08;;;;;;;26.30;13.60;;;10.10;92.50;;;;;;5013841;28;20060;-93
2021/04/30 07:47:33;;;;;;;21.90;12.60;;;10.20;92.30;;;;;;4996150;28;20080;-91
2021/04/30 07:49:59;;;;;;;22.30;12.30;;;10.20;92.20;;;;;;4954875;28;20074;-93
2021/04/30 07:52:34;;;;;;;24.60;13.70;;;10.30;91.80;;;;;;4968456;28;20057;-92
2021/04/30 07:55:18;;;;;;;20.17;13.05;;;10.30;91.70;;;;;;4932885;28;20058;-91
2021/04/30 07:57:49;;;;;;;25.33;12.93;;;10.40;91.70;;;;;;4929635;28;20083;-92
2021/04/30 08:00:27;;;;;;;24.88;13.50;;;10.50;91.40;;;;;;4914484;28;20463;-92
2021/04/30 08:03:16;;;;;;;19.38;11.82;;;10.70;91.30;;;;;;4889611;28;20109;-92
2021/04/30 08:05:44;;;;;;;21.10;12.40;;;10.80;90.60;;;;;;4910627;28;20571;-93
2021/04/30 08:08:21;;;;;;;23.05;13.15;;;11.00;90.70;;;;;;4937190;28;20081;-93
2021/04/30 08:11:02;;;;;;;19.13;12.40;;;11.10;90.70;;;;;;4910063;28;20049;-91
2021/04/30 08:13:40;;;;;;;20.08;12.00;;;11.30;90.50;;;;;;4918647;28;20425;-92
2021/04/30 08:16:47;;;;;;;18.23;11.75;;;11.50;90.40;;;;;;4867221;29;20050;-94
2021/04/30 08:38:34;;;;;;;14.73;11.57;;;11.60;86.90;;;;;;5196725;21;21498663;-93
2021/04/30 08:41:09;;;;;;;16.65;11.48;;;12.10;85.80;;;;;;6104014;23;20032;-93
2021/04/30 08:43:57;;;;;;;16.52;12.05;;;12.10;80.70;;;;;;6064930;23;20106;-93
2021/04/30 08:46:29;;;;;;;15.00;11.77;;;12.00;81.20;;;;;;5958236;23;20055;-92
2021/04/30 08:49:08;;;;;;;16.95;11.90;;;12.10;82.20;;;;;;5941717;23;20030;-92
2021/04/30 08:51:34;;;;;;;17.30;11.85;;;12.30;81.70;;;;;;5941377;23;20357;-90
2021/04/30 08:54:07;;;;;;;15.43;11.60;;;12.40;81.40;;;;;;5961284;23;20019;-93
2021/04/30 08:56:36;;;;;;;18.10;12.00;;;12.40;78.90;;;;;;5912042;23;20029;-92
2021/04/30 08:59:20;;;;;;;16.13;11.73;;;12.30;77.90;;;;;;5946059;23;20019;-93
2021/04/30 09:01:54;;;;;;;18.05;12.52;;;12.30;77.60;;;;;;5946656;23;20024;-89
2021/04/30 09:17:19;;;;;;;15.32;11.60;;;13.00;77.40;;;;;;6190085;22;20019;-88
2021/04/30 09:20:00;;;;;;;15.40;11.73;;;13.10;77.60;;;;;;6204933;22;20024;-96
2021/04/30 09:22:34;;;;;;;16.90;11.35;;;13.10;74.80;;;;;;6095725;23;20016;-95
2021/04/30 09:25:23;;;;;;;15.52;12.38;;;13.00;74.30;;;;;;6093481;23;20028;-95
2021/04/30 09:28:15;;;;;;;14.05;11.07;;;13.00;73.30;;;;;;6103656;23;20020;-96
2021/04/30 09:30:44;;;;;;;16.25;11.70;;;12.80;71.80;;;;;;6150613;23;20568;-92
2021/04/30 09:33:20;;;;;;;12.50;11.20;;;12.80;72.20;;;;;;6132650;23;20443;-96
2021/04/30 09:36:01;;;;;;;15.27;11.25;;;12.70;72.00;;;;;;6140078;23;20020;-93
2021/04/30 09:38:51;;;;;;;15.07;11.52;;;12.70;72.80;;;;;;6105034;23;20016;-93
2021/04/30 09:41:24;;;;;;;17.42;11.38;;;12.80;69.60;;;;;;6079643;23;20083;-90
2021/04/30 09:43:54;;;;;;;15.60;11.70;;;12.80;71.90;;;;;;6179346;22;20017;-96
2021/04/30 09:46:44;;;;;;;14.43;11.65;;;12.80;73.00;;;;;;6006894;23;20018;-94
2021/04/30 09:49:22;;;;;;;14.98;11.75;;;12.70;73.80;;;;;;6089722;23;20088;-96
2021/04/30 09:52:13;;;;;;;14.40;11.27;;;12.70;73.90;;;;;;6042122;23;20542;-95
2021/04/30 09:54:52;;;;;;;;;;;12.70;74.60;;;;;;6019693;23;20036;-95
2021/04/30 09:57:36;;;;;;;13.77;11.55;;;12.60;71.90;;;;;;6093092;23;19916;-96
2021/04/30 10:00:11;;;;;;;14.23;12.15;;;12.60;74.00;;;;;;6092511;23;20021;-93
2021/04/30 10:21:01;;;;;;;13.25;11.05;;;12.80;71.60;;;;;;5048776;27;936780;-92
2021/04/30 10:23:31;;;;;;;13.30;11.25;;;13.10;68.30;;;;;;5062442;28;20120;-94
2021/04/30 10:26:06;;;;;;;16.60;12.35;;;13.00;67.90;;;;;;5062783;28;20055;-93
2021/04/30 10:28:59;;;;;;;15.65;11.80;;;13.00;69.30;;;;;;4985831;28;20183;-94
2021/04/30 10:31:39;;;;;;;15.15;12.23;;;13.00;70.50;;;;;;4985868;28;20048;-93
2021/04/30 10:39:13;;;;;;;16.50;12.57;;;13.10;71.00;;;;;;4884098;28;20075;-93
2021/04/30 10:42:31;;;;;;;;;;;;;;;;;;;;;
2021/04/30 10:56:25;;;;;;;15.82;12.88;;;13.00;71.60;;;;;;4995677;27;812758;-93
2021/04/30 10:59:38;;;;;;;16.48;12.60;;;12.80;71.00;;;;;;4844575;28;20049;-94
2021/04/30 11:03:17;;;;;;;;;;;12.90;71.10;;;;;;4003002;30;75607185;-85
2021/04/30 11:06:07;;;;;;;16.38;12.82;;;12.90;71.40;;;;;;5084197;27;20145;-90
2021/04/30 11:08:49;;;;;;;17.42;12.90;;;12.90;72.00;;;;;;5038936;28;20055;-90
2021/04/30 11:11:31;;;;;;;15.73;12.75;;;13.10;70.40;;;;;;5055350;28;20477;-87
2021/04/30 11:14:18;;;;;;;17.65;12.88;;;13.20;68.40;;;;;;5052458;28;20134;-87
2021/04/30 11:16:48;;;;;;;14.40;12.38;;;13.20;68.70;;;;;;5053626;28;20091;-87
2021/04/30 11:19:15;;;;;;;15.35;13.07;;;13.30;69.60;;;;;;5076641;28;20102;-87
2021/04/30 11:21:52;;;;;;;15.35;12.85;;;13.40;69.20;;;;;;5046679;28;20054;-85
2021/04/30 11:24:31;;;;;;;13.85;12.30;;;13.40;68.20;;;;;;5095372;28;20154;-85
2021/04/30 11:27:11;;;;;;;13.05;11.73;;;13.60;67.50;;;;;;5065715;28;20101;-85
2021/04/30 11:29:40;;;;;;;13.82;12.23;;;13.70;67.30;;;;;;5094408;28;20056;-85
2021/04/30 11:32:27;;;;;;;14.73;12.82;;;13.70;66.50;;;;;;5087509;28;20057;-86
2021/04/30 11:35:01;;;;;;;14.25;12.75;;;13.80;67.00;;;;;;5091226;28;20377;-85
2021/04/30 11:37:30;;;;;;;14.70;13.07;;;13.90;64.50;;;;;;5080315;27;20052;-83
2021/04/30 11:39:57;;;;;;;15.52;13.05;;;14.00;67.10;;;;;;5089681;28;20040;-82
2021/04/30 11:42:34;;;;;;;14.90;12.50;;;14.00;66.70;;;;;;5085582;28;20091;-84
2021/04/30 11:45:01;;;;;;;14.65;12.00;;;13.90;64.50;;;;;;5080774;28;20055;-85
2021/04/30 11:47:40;;;;;;;16.23;12.77;;;14.00;65.60;;;;;;5099481;28;20056;-86
2021/04/30 11:50:11;;;;;;;13.60;12.27;;;14.20;65.00;;;;;;5076372;28;20500;-84
2021/04/30 11:52:44;;;;;;;16.95;12.27;;;14.40;65.90;;;;;;5074815;28;20051;-85
2021/04/30 11:55:13;;;;;;;14.90;13.27;;;14.60;65.90;;;;;;5089894;27;20403;-85
2021/04/30 11:57:40;;;;;;;16.15;13.30;;;14.70;65.90;;;;;;5094502;28;20052;-85
2021/04/30 12:00:29;;;;;;;15.68;12.70;;;14.70;65.40;;;;;;5106634;28;20043;-85
2021/04/30 12:03:07;;;;;;;15.07;12.10;;;14.80;64.70;;;;;;5048081;28;20083;-86
2021/04/30 12:05:33;;;;;;;14.60;12.18;;;14.70;64.50;;;;;;5093304;28;20047;-86
2021/04/30 12:08:00;;;;;;;14.50;12.93;;;14.60;65.40;;;;;;5097834;28;20475;-86
2021/04/30 12:10:29;;;;;;;15.02;13.35;;;14.60;65.40;;;;;;5089366;28;20047;-87
2021/04/30 12:12:55;;;;;;;14.73;13.23;;;14.50;65.30;;;;;;5084484;28;20044;-86
2021/04/30 12:15:42;;;;;;;18.05;13.90;;;14.50;65.30;;;;;;5081131;28;20135;-86
2021/04/30 12:18:08;;;;;;;18.65;14.27;;;14.50;64.20;;;;;;5068801;28;20044;-86
2021/04/30 12:20:36;;;;;;;15.63;14.02;;;14.50;65.00;;;;;;5069564;28;20048;-87
2021/04/30 12:23:05;;;;;;;15.25;13.68;;;14.50;65.00;;;;;;5080653;28;20550;-86
2021/04/30 12:25:46;;;;;;;14.98;13.13;;;14.40;64.70;;;;;;5071161;28;20045;-87
2021/04/30 12:28:13;;;;;;;15.68;14.07;;;14.30;63.50;;;;;;5058849;28;20080;-86
2021/04/30 12:30:40;;;;;;;16.65;13.93;;;14.30;64.50;;;;;;5066216;28;20079;-86
2021/04/30 12:33:06;;;;;;;15.30;13.73;;;14.30;64.90;;;;;;5065206;28;20084;-86
2021/04/30 12:35:32;;;;;;;15.70;13.75;;;14.30;64.70;;;;;;5061146;28;20152;-88
2021/04/30 12:37:58;;;;;;;16.58;14.75;;;14.20;64.70;;;;;;5082339;28;20450;-84
2021/04/30 12:40:28;;;;;;;15.68;13.98;;;14.20;65.40;;;;;;5089630;28;20089;-88
2021/04/30 12:42:56;;;;;;;16.52;14.27;;;14.20;64.90;;;;;;5069514;28;20485;-88
2021/04/30 12:45:23;;;;;;;16.83;14.05;;;14.10;65.00;;;;;;5072344;28;20040;-86
2021/04/30 12:47:55;;;;;;;16.55;14.55;;;14.20;64.80;;;;;;5076121;28;20060;-83
2021/04/30 12:50:24;;;;;;;17.98;14.25;;;14.10;63.80;;;;;;5068478;28;20216;-89
2021/04/30 12:52:52;;;;;;;16.42;14.82;;;14.00;65.00;;;;;;5073761;28;20048;-89
2021/04/30 12:55:24;;;;;;;15.20;13.60;;;13.90;65.20;;;;;;5078821;28;20052;-89
2021/04/30 12:58:03;;;;;;;16.23;14.52;;;13.90;65.30;;;;;;5071946;28;20044;-86
2021/04/30 13:00:30;;;;;;;16.15;14.45;;;14.00;65.80;;;;;;5099547;28;20044;-89
2021/04/30 13:02:56;;;;;;;16.23;14.15;;;14.00;65.90;;;;;;5083356;28;20127;-85
2021/04/30 13:05:23;;;;;;;19.48;15.68;;;14.00;66.20;;;;;;5065163;28;20056;-88
2021/04/30 13:07:51;;;;;;;16.27;14.55;;;14.10;66.00;;;;;;5083429;28;20048;-89
2021/04/30 13:10:27;;;;;;;16.65;14.57;;;14.10;65.80;;;;;;5058218;28;20461;-88
2021/04/30 13:13:04;;;;;;;17.75;14.07;;;14.00;66.40;;;;;;5087046;28;20041;-87
2021/04/30 13:15:30;;;;;;;14.50;12.48;;;13.90;66.10;;;;;;5072857;28;20071;-88
2021/04/30 13:17:58;;;;;;;13.93;12.43;;;;;;;;;;5087449;28;20051;-86
2021/04/30 13:20:27;;;;;;;15.13;12.38;;;;;;;;;;5075215;28;20040;-86
2021/04/30 13:23:02;;;;;;;17.38;13.98;;;;;;;;;;5069311;28;20045;-86
2021/04/30 13:25:37;;;;;;;15.55;13.10;;;11.80;74.70;;;;;;5082952;28;20044;-87
2021/04/30 13:28:16;;;;;;;15.23;12.55;;;11.80;74.90;;;;;;5060612;28;20057;-86
2021/04/30 13:30:45;;;;;;;13.32;11.43;;;11.60;76.20;;;;;;5066344;28;20075;-85
2021/04/30 13:33:12;;;;;;;11.20;8.63;;;11.60;75.00;;;;;;5067541;28;20110;-86
2021/04/30 13:35:37;;;;;;;12.18;10.65;;;11.60;75.90;;;;;;5059613;28;20039;-87
2021/04/30 13:38:03;;;;;;;13.30;10.43;;;11.50;75.90;;;;;;5061501;28;20048;-87
2021/04/30 13:40:29;;;;;;;13.10;10.68;;;11.40;76.20;;;;;;5062563;28;20412;-87
2021/04/30 13:42:59;;;;;;;12.73;10.30;;;11.30;77.00;;;;;;5069855;28;20604;-87
2021/04/30 13:45:25;;;;;;;14.35;10.23;;;11.30;76.10;;;;;;5076880;28;20134;-88
2021/04/30 13:47:52;;;;;;;13.18;10.25;;;11.40;76.90;;;;;;5073168;28;20139;-88
2021/04/30 13:50:30;;;;;;;11.98;10.20;;;11.50;79.00;;;;;;5080522;28;20518;-86
2021/04/30 13:53:02;;;;;;;13.30;10.98;;;11.80;76.00;;;;;;5061935;28;20754;-86
2021/04/30 13:55:28;;;;;;;9.80;7.35;;;11.90;77.40;;;;;;5079953;28;20190;-88
2021/04/30 13:57:54;;;;;;;12.15;9.40;;;12.00;74.80;;;;;;5078749;28;20040;-90